sensor_id;sensor_type;location;lat;lon;timestamp;P1;durP1;ratioP1;P2;durP2;ratioP2
83435;SDS011;73365;51.688;5.132;2023-12-22T00:01:06;10.50;;;1.25;;
83435;SDS011;73365;51.688;5.132;2023-12-22T00:03:32;14.57;;;1.40;;
83435;SDS011;73365;51.688;5.132;2023-12-22T00:05:57;11.35;;;1.40;;
83435;SDS011;73365;51.688;5.132;2023-12-22T00:08:27;9.45;;;1.08;;
83435;SDS011;73365;51.688;5.132;2023-12-22T00:10:52;10.30;;;1.58;;
83435;SDS011;73365;51.688;5.132;2023-12-22T00:13:18;8.32;;;1.73;;
83435;SDS011;73365;51.688;5.132;2023-12-22T00:15:43;10.80;;;1.23;;
83435;SDS011;73365;51.688;5.132;2023-12-22T00:18:09;14.15;;;1.70;;
83435;SDS011;73365;51.688;5.132;2023-12-22T00:20:35;10.25;;;1.42;;
83435;SDS011;73365;51.688;5.132;2023-12-22T00:23:01;7.95;;;1.30;;
83435;SDS011;73365;51.688;5.132;2023-12-22T00:27:53;13.25;;;1.63;;
83435;SDS011;73365;51.688;5.132;2023-12-22T00:30:19;8.60;;;1.30;;
83435;SDS011;73365;51.688;5.132;2023-12-22T00:32:44;10.65;;;1.27;;
83435;SDS011;73365;51.688;5.132;2023-12-22T00:35:10;11.02;;;1.95;;
83435;SDS011;73365;51.688;5.132;2023-12-22T00:37:35;12.00;;;1.30;;
83435;SDS011;73365;51.688;5.132;2023-12-22T00:40:01;13.73;;;1.95;;
83435;SDS011;73365;51.688;5.132;2023-12-22T00:42:29;8.52;;;1.10;;
83435;SDS011;73365;51.688;5.132;2023-12-22T00:44:54;16.55;;;1.80;;
83435;SDS011;73365;51.688;5.132;2023-12-22T00:47:19;11.70;;;2.25;;
83435;SDS011;73365;51.688;5.132;2023-12-22T00:49:45;10.30;;;1.00;;
83435;SDS011;73365;51.688;5.132;2023-12-22T00:52:10;14.20;;;1.23;;
83435;SDS011;73365;51.688;5.132;2023-12-22T00:54:36;14.52;;;1.35;;
83435;SDS011;73365;51.688;5.132;2023-12-22T00:57:01;9.23;;;1.23;;
83435;SDS011;73365;51.688;5.132;2023-12-22T00:59:26;19.48;;;2.35;;
83435;SDS011;73365;51.688;5.132;2023-12-22T01:01:53;11.77;;;1.88;;
83435;SDS011;73365;51.688;5.132;2023-12-22T01:04:20;11.98;;;1.65;;
83435;SDS011;73365;51.688;5.132;2023-12-22T01:06:47;12.15;;;1.98;;
83435;SDS011;73365;51.688;5.132;2023-12-22T01:09:13;8.15;;;1.60;;
83435;SDS011;73365;51.688;5.132;2023-12-22T01:11:40;8.88;;;1.25;;
83435;SDS011;73365;51.688;5.132;2023-12-22T01:14:05;10.95;;;2.00;;
83435;SDS011;73365;51.688;5.132;2023-12-22T01:16:32;10.70;;;1.55;;
83435;SDS011;73365;51.688;5.132;2023-12-22T01:18:57;9.88;;;2.03;;
83435;SDS011;73365;51.688;5.132;2023-12-22T01:21:23;13.50;;;1.95;;
83435;SDS011;73365;51.688;5.132;2023-12-22T01:23:48;16.52;;;1.75;;
83435;SDS011;73365;51.688;5.132;2023-12-22T01:26:13;13.07;;;1.52;;
83435;SDS011;73365;51.688;5.132;2023-12-22T01:28:39;11.63;;;1.60;;
83435;SDS011;73365;51.688;5.132;2023-12-22T01:31:04;10.68;;;1.70;;
83435;SDS011;73365;51.688;5.132;2023-12-22T01:33:29;7.93;;;1.70;;
83435;SDS011;73365;51.688;5.132;2023-12-22T01:35:55;10.15;;;1.48;;
83435;SDS011;73365;51.688;5.132;2023-12-22T01:38:20;7.38;;;1.27;;
83435;SDS011;73365;51.688;5.132;2023-12-22T01:40:46;15.43;;;1.63;;
83435;SDS011;73365;51.688;5.132;2023-12-22T01:43:11;6.57;;;0.90;;
83435;SDS011;73365;51.688;5.132;2023-12-22T01:45:38;10.55;;;1.08;;
83435;SDS011;73365;51.688;5.132;2023-12-22T01:48:03;10.25;;;1.35;;
83435;SDS011;73365;51.688;5.132;2023-12-22T01:50:29;8.65;;;1.30;;
83435;SDS011;73365;51.688;5.132;2023-12-22T01:52:55;8.15;;;1.15;;
83435;SDS011;73365;51.688;5.132;2023-12-22T01:55:20;8.38;;;0.88;;
83435;SDS011;73365;51.688;5.132;2023-12-22T01:57:46;10.30;;;1.73;;
83435;SDS011;73365;51.688;5.132;2023-12-22T02:00:13;9.68;;;1.10;;
83435;SDS011;73365;51.688;5.132;2023-12-22T02:02:39;12.88;;;1.27;;
83435;SDS011;73365;51.688;5.132;2023-12-22T02:05:07;11.30;;;1.45;;
83435;SDS011;73365;51.688;5.132;2023-12-22T02:07:34;12.13;;;1.63;;
83435;SDS011;73365;51.688;5.132;2023-12-22T02:09:59;8.30;;;1.02;;
83435;SDS011;73365;51.688;5.132;2023-12-22T02:12:25;12.02;;;1.38;;
83435;SDS011;73365;51.688;5.132;2023-12-22T02:14:50;6.07;;;1.07;;
83435;SDS011;73365;51.688;5.132;2023-12-22T02:20:07;9.45;;;1.33;;
83435;SDS011;73365;51.688;5.132;2023-12-22T02:22:33;8.25;;;1.33;;
83435;SDS011;73365;51.688;5.132;2023-12-22T02:24:59;8.55;;;1.02;;
83435;SDS011;73365;51.688;5.132;2023-12-22T02:29:57;10.50;;;1.42;;
83435;SDS011;73365;51.688;5.132;2023-12-22T02:32:38;11.00;;;1.60;;
83435;SDS011;73365;51.688;5.132;2023-12-22T02:35:07;13.27;;;1.63;;
83435;SDS011;73365;51.688;5.132;2023-12-22T02:37:35;7.53;;;1.20;;
83435;SDS011;73365;51.688;5.132;2023-12-22T02:40:01;12.93;;;1.70;;
83435;SDS011;73365;51.688;5.132;2023-12-22T02:44:56;8.88;;;1.30;;
83435;SDS011;73365;51.688;5.132;2023-12-22T02:47:23;8.60;;;1.30;;
83435;SDS011;73365;51.688;5.132;2023-12-22T02:49:48;12.48;;;1.80;;
83435;SDS011;73365;51.688;5.132;2023-12-22T02:52:14;10.77;;;1.83;;
83435;SDS011;73365;51.688;5.132;2023-12-22T02:54:39;10.57;;;1.20;;
83435;SDS011;73365;51.688;5.132;2023-12-22T02:57:09;13.10;;;1.95;;
83435;SDS011;73365;51.688;5.132;2023-12-22T02:59:34;10.50;;;1.63;;
83435;SDS011;73365;51.688;5.132;2023-12-22T03:02:01;12.45;;;1.45;;
83435;SDS011;73365;51.688;5.132;2023-12-22T03:04:27;12.85;;;1.70;;
83435;SDS011;73365;51.688;5.132;2023-12-22T03:06:52;9.80;;;1.95;;
83435;SDS011;73365;51.688;5.132;2023-12-22T03:09:17;7.10;;;1.20;;
83435;SDS011;73365;51.688;5.132;2023-12-22T03:11:43;8.63;;;1.23;;
83435;SDS011;73365;51.688;5.132;2023-12-22T03:14:08;4.55;;;0.73;;
83435;SDS011;73365;51.688;5.132;2023-12-22T03:16:35;9.18;;;1.23;;
83435;SDS011;73365;51.688;5.132;2023-12-22T03:19:00;10.70;;;1.30;;
83435;SDS011;73365;51.688;5.132;2023-12-22T03:21:26;9.38;;;1.05;;
83435;SDS011;73365;51.688;5.132;2023-12-22T03:23:51;10.52;;;1.55;;
83435;SDS011;73365;51.688;5.132;2023-12-22T03:26:17;10.60;;;1.58;;
83435;SDS011;73365;51.688;5.132;2023-12-22T03:28:42;13.30;;;1.95;;
83435;SDS011;73365;51.688;5.132;2023-12-22T03:31:07;9.02;;;1.00;;
83435;SDS011;73365;51.688;5.132;2023-12-22T03:33:33;11.27;;;1.40;;
83435;SDS011;73365;51.688;5.132;2023-12-22T03:35:58;7.22;;;0.77;;
83435;SDS011;73365;51.688;5.132;2023-12-22T03:38:23;12.13;;;1.05;;
83435;SDS011;73365;51.688;5.132;2023-12-22T03:40:49;10.73;;;1.08;;
83435;SDS011;73365;51.688;5.132;2023-12-22T03:43:14;6.93;;;0.90;;
83435;SDS011;73365;51.688;5.132;2023-12-22T03:45:40;8.38;;;1.73;;
83435;SDS011;73365;51.688;5.132;2023-12-22T03:48:07;16.63;;;1.70;;
83435;SDS011;73365;51.688;5.132;2023-12-22T03:50:32;8.48;;;1.33;;
83435;SDS011;73365;51.688;5.132;2023-12-22T03:52:57;9.10;;;1.40;;
83435;SDS011;73365;51.688;5.132;2023-12-22T03:55:23;11.52;;;1.33;;
83435;SDS011;73365;51.688;5.132;2023-12-22T03:57:48;5.75;;;0.85;;
83435;SDS011;73365;51.688;5.132;2023-12-22T04:00:14;9.90;;;1.23;;
83435;SDS011;73365;51.688;5.132;2023-12-22T04:02:41;12.75;;;1.63;;
83435;SDS011;73365;51.688;5.132;2023-12-22T04:05:06;8.15;;;1.30;;
83435;SDS011;73365;51.688;5.132;2023-12-22T04:07:32;10.15;;;0.77;;
83435;SDS011;73365;51.688;5.132;2023-12-22T04:09:57;7.53;;;1.20;;
83435;SDS011;73365;51.688;5.132;2023-12-22T04:14:48;6.83;;;0.90;;
83435;SDS011;73365;51.688;5.132;2023-12-22T04:17:15;9.50;;;1.10;;
83435;SDS011;73365;51.688;5.132;2023-12-22T04:19:40;9.70;;;1.77;;
83435;SDS011;73365;51.688;5.132;2023-12-22T04:22:06;9.63;;;1.47;;
83435;SDS011;73365;51.688;5.132;2023-12-22T04:24:31;9.52;;;1.08;;
83435;SDS011;73365;51.688;5.132;2023-12-22T04:26:56;8.55;;;1.20;;
83435;SDS011;73365;51.688;5.132;2023-12-22T04:29:22;10.23;;;1.33;;
83435;SDS011;73365;51.688;5.132;2023-12-22T04:31:47;10.35;;;1.80;;
83435;SDS011;73365;51.688;5.132;2023-12-22T04:34:15;8.80;;;1.52;;
83435;SDS011;73365;51.688;5.132;2023-12-22T04:36:41;8.40;;;1.15;;
83435;SDS011;73365;51.688;5.132;2023-12-22T04:39:07;8.07;;;1.38;;
83435;SDS011;73365;51.688;5.132;2023-12-22T04:41:32;10.75;;;1.30;;
83435;SDS011;73365;51.688;5.132;2023-12-22T04:43:57;10.43;;;1.15;;
83435;SDS011;73365;51.688;5.132;2023-12-22T04:46:23;7.78;;;1.30;;
83435;SDS011;73365;51.688;5.132;2023-12-22T04:48:48;8.90;;;1.50;;
83435;SDS011;73365;51.688;5.132;2023-12-22T04:51:13;14.40;;;1.90;;
83435;SDS011;73365;51.688;5.132;2023-12-22T04:53:39;6.00;;;1.50;;
83435;SDS011;73365;51.688;5.132;2023-12-22T04:56:04;8.77;;;1.93;;
83435;SDS011;73365;51.688;5.132;2023-12-22T04:58:30;11.52;;;1.00;;
83435;SDS011;73365;51.688;5.132;2023-12-22T05:00:55;11.60;;;0.98;;
83435;SDS011;73365;51.688;5.132;2023-12-22T05:03:20;8.90;;;0.93;;
83435;SDS011;73365;51.688;5.132;2023-12-22T05:05:47;7.10;;;1.33;;
83435;SDS011;73365;51.688;5.132;2023-12-22T05:08:12;4.47;;;0.60;;
83435;SDS011;73365;51.688;5.132;2023-12-22T05:10:38;10.40;;;0.98;;
83435;SDS011;73365;51.688;5.132;2023-12-22T05:13:03;8.40;;;1.20;;
83435;SDS011;73365;51.688;5.132;2023-12-22T05:15:28;8.35;;;1.17;;
83435;SDS011;73365;51.688;5.132;2023-12-22T05:17:55;10.75;;;0.80;;
83435;SDS011;73365;51.688;5.132;2023-12-22T05:20:21;8.38;;;0.80;;
83435;SDS011;73365;51.688;5.132;2023-12-22T05:22:46;4.77;;;1.00;;
83435;SDS011;73365;51.688;5.132;2023-12-22T05:25:13;11.43;;;1.73;;
83435;SDS011;73365;51.688;5.132;2023-12-22T05:27:38;17.42;;;2.20;;
83435;SDS011;73365;51.688;5.132;2023-12-22T05:30:04;19.70;;;3.10;;
83435;SDS011;73365;51.688;5.132;2023-12-22T05:32:30;16.08;;;2.63;;
83435;SDS011;73365;51.688;5.132;2023-12-22T05:34:57;19.73;;;2.72;;
83435;SDS011;73365;51.688;5.132;2023-12-22T05:37:22;19.38;;;3.30;;
83435;SDS011;73365;51.688;5.132;2023-12-22T05:39:47;17.20;;;2.77;;
83435;SDS011;73365;51.688;5.132;2023-12-22T05:42:13;16.58;;;2.33;;
83435;SDS011;73365;51.688;5.132;2023-12-22T05:44:38;17.85;;;3.22;;
83435;SDS011;73365;51.688;5.132;2023-12-22T05:47:05;12.45;;;2.33;;
83435;SDS011;73365;51.688;5.132;2023-12-22T05:49:31;19.83;;;2.90;;
83435;SDS011;73365;51.688;5.132;2023-12-22T05:51:57;17.10;;;2.23;;
83435;SDS011;73365;51.688;5.132;2023-12-22T05:54:22;16.03;;;2.83;;
83435;SDS011;73365;51.688;5.132;2023-12-22T05:56:50;12.10;;;1.92;;
83435;SDS011;73365;51.688;5.132;2023-12-22T05:59:17;15.88;;;3.53;;
83435;SDS011;73365;51.688;5.132;2023-12-22T06:04:08;15.93;;;2.63;;
83435;SDS011;73365;51.688;5.132;2023-12-22T06:06:33;18.92;;;2.78;;
83435;SDS011;73365;51.688;5.132;2023-12-22T06:11:24;16.90;;;2.80;;
83435;SDS011;73365;51.688;5.132;2023-12-22T06:13:50;21.38;;;3.40;;
83435;SDS011;73365;51.688;5.132;2023-12-22T06:16:15;25.98;;;3.58;;
83435;SDS011;73365;51.688;5.132;2023-12-22T06:18:43;21.73;;;3.30;;
83435;SDS011;73365;51.688;5.132;2023-12-22T06:21:08;19.63;;;2.83;;
83435;SDS011;73365;51.688;5.132;2023-12-22T06:23:35;20.70;;;4.15;;
83435;SDS011;73365;51.688;5.132;2023-12-22T06:26:01;15.15;;;2.72;;
83435;SDS011;73365;51.688;5.132;2023-12-22T06:30:52;26.43;;;4.33;;
83435;SDS011;73365;51.688;5.132;2023-12-22T06:33:19;19.35;;;3.20;;
83435;SDS011;73365;51.688;5.132;2023-12-22T06:35:44;25.05;;;3.72;;
83435;SDS011;73365;51.688;5.132;2023-12-22T06:38:10;26.40;;;3.55;;
83435;SDS011;73365;51.688;5.132;2023-12-22T06:40:36;21.25;;;4.43;;
83435;SDS011;73365;51.688;5.132;2023-12-22T06:43:02;27.98;;;4.07;;
83435;SDS011;73365;51.688;5.132;2023-12-22T06:45:28;24.85;;;3.65;;
83435;SDS011;73365;51.688;5.132;2023-12-22T06:47:53;22.45;;;3.20;;
83435;SDS011;73365;51.688;5.132;2023-12-22T06:50:18;23.08;;;3.70;;
83435;SDS011;73365;51.688;5.132;2023-12-22T06:52:44;29.77;;;4.20;;
83435;SDS011;73365;51.688;5.132;2023-12-22T06:55:09;19.02;;;4.28;;
83435;SDS011;73365;51.688;5.132;2023-12-22T06:57:35;31.02;;;4.50;;
83435;SDS011;73365;51.688;5.132;2023-12-22T07:00:00;23.13;;;4.18;;
83435;SDS011;73365;51.688;5.132;2023-12-22T07:02:26;24.27;;;3.15;;
83435;SDS011;73365;51.688;5.132;2023-12-22T07:07:48;21.17;;;2.72;;
83435;SDS011;73365;51.688;5.132;2023-12-22T07:10:13;19.17;;;3.38;;
83435;SDS011;73365;51.688;5.132;2023-12-22T07:12:39;23.13;;;3.55;;
83435;SDS011;73365;51.688;5.132;2023-12-22T07:15:07;24.13;;;3.28;;
83435;SDS011;73365;51.688;5.132;2023-12-22T07:17:33;21.48;;;3.83;;
83435;SDS011;73365;51.688;5.132;2023-12-22T07:19:58;19.83;;;3.55;;
83435;SDS011;73365;51.688;5.132;2023-12-22T07:22:24;29.20;;;4.38;;
83435;SDS011;73365;51.688;5.132;2023-12-22T07:24:49;19.70;;;3.35;;
83435;SDS011;73365;51.688;5.132;2023-12-22T07:27:17;22.88;;;3.22;;
83435;SDS011;73365;51.688;5.132;2023-12-22T07:29:43;19.38;;;3.08;;
83435;SDS011;73365;51.688;5.132;2023-12-22T07:32:08;22.85;;;2.58;;
83435;SDS011;73365;51.688;5.132;2023-12-22T07:34:33;24.20;;;3.47;;
83435;SDS011;73365;51.688;5.132;2023-12-22T07:36:59;21.15;;;3.40;;
83435;SDS011;73365;51.688;5.132;2023-12-22T07:39:24;24.83;;;2.90;;
83435;SDS011;73365;51.688;5.132;2023-12-22T07:41:49;21.88;;;2.85;;
83435;SDS011;73365;51.688;5.132;2023-12-22T07:44:15;18.92;;;3.38;;
83435;SDS011;73365;51.688;5.132;2023-12-22T07:46:41;17.67;;;2.78;;
83435;SDS011;73365;51.688;5.132;2023-12-22T07:49:06;21.13;;;3.70;;
83435;SDS011;73365;51.688;5.132;2023-12-22T07:51:31;20.48;;;3.30;;
83435;SDS011;73365;51.688;5.132;2023-12-22T07:53:57;18.02;;;2.97;;
83435;SDS011;73365;51.688;5.132;2023-12-22T07:56:23;16.73;;;3.50;;
83435;SDS011;73365;51.688;5.132;2023-12-22T07:58:48;15.10;;;3.35;;
83435;SDS011;73365;51.688;5.132;2023-12-22T08:01:14;17.02;;;3.88;;
83435;SDS011;73365;51.688;5.132;2023-12-22T08:03:42;18.80;;;2.92;;
83435;SDS011;73365;51.688;5.132;2023-12-22T08:06:08;16.25;;;2.70;;
83435;SDS011;73365;51.688;5.132;2023-12-22T08:08:33;16.20;;;3.03;;
83435;SDS011;73365;51.688;5.132;2023-12-22T08:10:59;15.73;;;2.50;;
83435;SDS011;73365;51.688;5.132;2023-12-22T08:13:25;12.32;;;1.98;;
83435;SDS011;73365;51.688;5.132;2023-12-22T08:15:50;13.68;;;2.90;;
83435;SDS011;73365;51.688;5.132;2023-12-22T08:18:16;15.93;;;2.92;;
83435;SDS011;73365;51.688;5.132;2023-12-22T08:20:41;15.35;;;1.85;;
83435;SDS011;73365;51.688;5.132;2023-12-22T08:23:06;9.50;;;2.10;;
83435;SDS011;73365;51.688;5.132;2023-12-22T08:25:32;13.40;;;2.08;;
83435;SDS011;73365;51.688;5.132;2023-12-22T08:30:23;8.30;;;1.38;;
83435;SDS011;73365;51.688;5.132;2023-12-22T08:35:15;9.75;;;1.92;;
83435;SDS011;73365;51.688;5.132;2023-12-22T08:37:41;11.88;;;1.60;;
83435;SDS011;73365;51.688;5.132;2023-12-22T08:40:07;10.35;;;1.63;;
83435;SDS011;73365;51.688;5.132;2023-12-22T08:44:58;8.33;;;1.60;;
83435;SDS011;73365;51.688;5.132;2023-12-22T08:47:23;6.97;;;1.35;;
83435;SDS011;73365;51.688;5.132;2023-12-22T08:49:50;6.72;;;1.50;;
83435;SDS011;73365;51.688;5.132;2023-12-22T08:52:15;7.07;;;1.67;;
83435;SDS011;73365;51.688;5.132;2023-12-22T08:54:42;6.18;;;1.05;;
83435;SDS011;73365;51.688;5.132;2023-12-22T08:57:07;5.47;;;0.98;;
83435;SDS011;73365;51.688;5.132;2023-12-22T08:59:34;7.13;;;1.08;;
83435;SDS011;73365;51.688;5.132;2023-12-22T09:02:00;6.65;;;0.70;;
83435;SDS011;73365;51.688;5.132;2023-12-22T09:04:25;8.55;;;1.10;;
83435;SDS011;73365;51.688;5.132;2023-12-22T09:06:50;6.43;;;1.00;;
83435;SDS011;73365;51.688;5.132;2023-12-22T09:09:16;6.35;;;0.88;;
83435;SDS011;73365;51.688;5.132;2023-12-22T09:11:42;7.40;;;1.02;;
83435;SDS011;73365;51.688;5.132;2023-12-22T09:14:07;3.80;;;0.75;;
83435;SDS011;73365;51.688;5.132;2023-12-22T09:16:34;8.82;;;0.85;;
83435;SDS011;73365;51.688;5.132;2023-12-22T09:19:01;8.65;;;1.20;;
83435;SDS011;73365;51.688;5.132;2023-12-22T09:21:27;4.32;;;0.65;;
83435;SDS011;73365;51.688;5.132;2023-12-22T09:23:53;3.47;;;0.65;;
83435;SDS011;73365;51.688;5.132;2023-12-22T09:26:19;6.50;;;0.98;;
83435;SDS011;73365;51.688;5.132;2023-12-22T09:31:10;5.87;;;1.13;;
83435;SDS011;73365;51.688;5.132;2023-12-22T09:33:37;5.45;;;0.82;;
83435;SDS011;73365;51.688;5.132;2023-12-22T09:36:03;5.72;;;0.70;;
83435;SDS011;73365;51.688;5.132;2023-12-22T09:38:29;3.92;;;0.52;;
83435;SDS011;73365;51.688;5.132;2023-12-22T09:43:21;7.85;;;0.88;;
83435;SDS011;73365;51.688;5.132;2023-12-22T09:45:46;4.35;;;0.73;;
83435;SDS011;73365;51.688;5.132;2023-12-22T09:48:14;10.35;;;1.23;;
83435;SDS011;73365;51.688;5.132;2023-12-22T09:50:45;4.93;;;1.05;;
83435;SDS011;73365;51.688;5.132;2023-12-22T09:53:12;7.82;;;0.85;;
83435;SDS011;73365;51.688;5.132;2023-12-22T09:55:39;6.28;;;0.82;;
83435;SDS011;73365;51.688;5.132;2023-12-22T09:58:07;7.00;;;0.98;;
83435;SDS011;73365;51.688;5.132;2023-12-22T10:00:33;8.50;;;0.90;;
83435;SDS011;73365;51.688;5.132;2023-12-22T10:03:01;8.90;;;1.25;;
83435;SDS011;73365;51.688;5.132;2023-12-22T10:05:27;5.38;;;1.25;;
83435;SDS011;73365;51.688;5.132;2023-12-22T10:07:53;5.20;;;0.70;;
83435;SDS011;73365;51.688;5.132;2023-12-22T10:12:44;7.18;;;1.10;;
83435;SDS011;73365;51.688;5.132;2023-12-22T10:15:12;10.20;;;0.82;;
83435;SDS011;73365;51.688;5.132;2023-12-22T10:17:38;3.08;;;0.63;;
83435;SDS011;73365;51.688;5.132;2023-12-22T10:20:04;7.43;;;1.17;;
83435;SDS011;73365;51.688;5.132;2023-12-22T10:22:31;6.60;;;1.38;;
83435;SDS011;73365;51.688;5.132;2023-12-22T10:24:57;5.55;;;0.93;;
83435;SDS011;73365;51.688;5.132;2023-12-22T10:29:48;5.27;;;0.70;;
83435;SDS011;73365;51.688;5.132;2023-12-22T10:32:20;4.63;;;0.75;;
83435;SDS011;73365;51.688;5.132;2023-12-22T10:37:11;5.67;;;0.80;;
83435;SDS011;73365;51.688;5.132;2023-12-22T10:39:40;5.95;;;0.95;;
83435;SDS011;73365;51.688;5.132;2023-12-22T10:42:06;6.55;;;1.08;;
83435;SDS011;73365;51.688;5.132;2023-12-22T10:44:32;5.03;;;0.75;;
83435;SDS011;73365;51.688;5.132;2023-12-22T10:46:58;4.57;;;0.85;;
83435;SDS011;73365;51.688;5.132;2023-12-22T10:49:24;3.83;;;1.17;;
83435;SDS011;73365;51.688;5.132;2023-12-22T10:51:50;5.38;;;1.20;;
83435;SDS011;73365;51.688;5.132;2023-12-22T10:54:16;4.03;;;0.77;;
83435;SDS011;73365;51.688;5.132;2023-12-22T10:56:42;5.70;;;0.88;;
83435;SDS011;73365;51.688;5.132;2023-12-22T10:59:10;3.55;;;0.65;;
83435;SDS011;73365;51.688;5.132;2023-12-22T11:01:36;7.82;;;0.82;;
83435;SDS011;73365;51.688;5.132;2023-12-22T11:04:05;10.52;;;1.05;;
83435;SDS011;73365;51.688;5.132;2023-12-22T11:06:43;7.63;;;1.17;;
83435;SDS011;73365;51.688;5.132;2023-12-22T11:09:10;5.28;;;0.90;;
83435;SDS011;73365;51.688;5.132;2023-12-22T11:11:39;7.05;;;1.15;;
83435;SDS011;73365;51.688;5.132;2023-12-22T11:14:05;6.63;;;0.80;;
83435;SDS011;73365;51.688;5.132;2023-12-22T11:16:32;5.65;;;1.35;;
83435;SDS011;73365;51.688;5.132;2023-12-22T11:18:58;5.82;;;0.85;;
83435;SDS011;73365;51.688;5.132;2023-12-22T11:21:25;4.80;;;1.02;;
83435;SDS011;73365;51.688;5.132;2023-12-22T11:23:51;5.18;;;0.70;;
83435;SDS011;73365;51.688;5.132;2023-12-22T11:26:17;7.28;;;1.23;;
83435;SDS011;73365;51.688;5.132;2023-12-22T11:28:47;4.47;;;0.80;;
83435;SDS011;73365;51.688;5.132;2023-12-22T11:31:17;5.05;;;1.27;;
83435;SDS011;73365;51.688;5.132;2023-12-22T11:33:43;5.15;;;0.68;;
83435;SDS011;73365;51.688;5.132;2023-12-22T11:36:13;7.18;;;1.23;;
83435;SDS011;73365;51.688;5.132;2023-12-22T11:38:39;6.40;;;0.93;;
83435;SDS011;73365;51.688;5.132;2023-12-22T11:41:05;5.53;;;0.90;;
83435;SDS011;73365;51.688;5.132;2023-12-22T11:43:31;4.65;;;0.95;;
83435;SDS011;73365;51.688;5.132;2023-12-22T11:46:04;6.22;;;1.20;;
83435;SDS011;73365;51.688;5.132;2023-12-22T11:48:30;5.75;;;1.00;;
83435;SDS011;73365;51.688;5.132;2023-12-22T11:50:55;5.65;;;0.88;;
83435;SDS011;73365;51.688;5.132;2023-12-22T11:53:22;7.68;;;1.27;;
83435;SDS011;73365;51.688;5.132;2023-12-22T11:55:57;4.75;;;1.20;;
83435;SDS011;73365;51.688;5.132;2023-12-22T12:01:18;4.07;;;0.65;;
83435;SDS011;73365;51.688;5.132;2023-12-22T12:08:38;6.88;;;0.93;;
83435;SDS011;73365;51.688;5.132;2023-12-22T12:11:03;4.55;;;1.33;;
83435;SDS011;73365;51.688;5.132;2023-12-22T12:13:31;7.63;;;1.15;;
83435;SDS011;73365;51.688;5.132;2023-12-22T12:16:00;8.13;;;1.55;;
83435;SDS011;73365;51.688;5.132;2023-12-22T12:18:32;6.18;;;0.82;;
83435;SDS011;73365;51.688;5.132;2023-12-22T12:20:58;5.22;;;0.80;;
83435;SDS011;73365;51.688;5.132;2023-12-22T12:23:24;5.72;;;0.95;;
83435;SDS011;73365;51.688;5.132;2023-12-22T12:25:51;5.80;;;0.77;;
83435;SDS011;73365;51.688;5.132;2023-12-22T12:28:16;6.50;;;1.15;;
83435;SDS011;73365;51.688;5.132;2023-12-22T12:30:44;6.53;;;1.08;;
83435;SDS011;73365;51.688;5.132;2023-12-22T12:33:12;6.90;;;0.77;;
83435;SDS011;73365;51.688;5.132;2023-12-22T12:35:38;7.53;;;0.80;;
83435;SDS011;73365;51.688;5.132;2023-12-22T12:38:04;5.20;;;1.30;;
83435;SDS011;73365;51.688;5.132;2023-12-22T12:40:30;10.75;;;1.02;;
83435;SDS011;73365;51.688;5.132;2023-12-22T12:42:59;5.80;;;0.70;;
83435;SDS011;73365;51.688;5.132;2023-12-22T12:45:25;7.82;;;1.20;;
83435;SDS011;73365;51.688;5.132;2023-12-22T12:47:57;5.03;;;1.10;;
83435;SDS011;73365;51.688;5.132;2023-12-22T12:50:27;5.95;;;0.77;;
83435;SDS011;73365;51.688;5.132;2023-12-22T12:52:54;10.82;;;1.77;;
83435;SDS011;73365;51.688;5.132;2023-12-22T12:55:21;9.60;;;1.20;;
83435;SDS011;73365;51.688;5.132;2023-12-22T12:57:48;9.20;;;1.10;;
83435;SDS011;73365;51.688;5.132;2023-12-22T13:00:15;10.15;;;1.33;;
83435;SDS011;73365;51.688;5.132;2023-12-22T13:02:42;7.53;;;0.88;;
83435;SDS011;73365;51.688;5.132;2023-12-22T13:05:07;6.55;;;1.23;;
83435;SDS011;73365;51.688;5.132;2023-12-22T13:07:35;7.05;;;0.77;;
83435;SDS011;73365;51.688;5.132;2023-12-22T13:10:00;5.10;;;0.55;;
83435;SDS011;73365;51.688;5.132;2023-12-22T13:14:51;10.63;;;1.10;;
83435;SDS011;73365;51.688;5.132;2023-12-22T13:19:41;6.80;;;0.83;;
83435;SDS011;73365;51.688;5.132;2023-12-22T13:24:35;6.63;;;1.27;;
83435;SDS011;73365;51.688;5.132;2023-12-22T13:27:01;6.68;;;1.00;;
83435;SDS011;73365;51.688;5.132;2023-12-22T13:29:28;10.15;;;0.93;;
83435;SDS011;73365;51.688;5.132;2023-12-22T13:34:19;4.97;;;1.13;;
83435;SDS011;73365;51.688;5.132;2023-12-22T13:36:45;10.85;;;1.02;;
83435;SDS011;73365;51.688;5.132;2023-12-22T13:39:11;8.35;;;1.25;;
83435;SDS011;73365;51.688;5.132;2023-12-22T13:41:43;10.20;;;1.17;;
83435;SDS011;73365;51.688;5.132;2023-12-22T13:44:12;7.53;;;0.90;;
83435;SDS011;73365;51.688;5.132;2023-12-22T13:46:39;7.07;;;1.02;;
83435;SDS011;73365;51.688;5.132;2023-12-22T13:49:10;7.97;;;1.42;;
83435;SDS011;73365;51.688;5.132;2023-12-22T13:51:42;6.00;;;0.80;;
83435;SDS011;73365;51.688;5.132;2023-12-22T13:54:09;7.28;;;1.23;;
83435;SDS011;73365;51.688;5.132;2023-12-22T13:56:35;9.00;;;1.95;;
83435;SDS011;73365;51.688;5.132;2023-12-22T13:59:01;6.60;;;1.15;;
83435;SDS011;73365;51.688;5.132;2023-12-22T14:01:27;5.70;;;1.17;;
83435;SDS011;73365;51.688;5.132;2023-12-22T14:03:53;6.68;;;0.95;;
83435;SDS011;73365;51.688;5.132;2023-12-22T14:08:44;5.80;;;1.30;;
83435;SDS011;73365;51.688;5.132;2023-12-22T14:11:09;6.18;;;1.13;;
83435;SDS011;73365;51.688;5.132;2023-12-22T14:13:35;10.50;;;1.55;;
83435;SDS011;73365;51.688;5.132;2023-12-22T14:16:05;7.35;;;1.20;;
83435;SDS011;73365;51.688;5.132;2023-12-22T14:18:31;7.65;;;0.98;;
83435;SDS011;73365;51.688;5.132;2023-12-22T14:23:21;6.37;;;1.40;;
83435;SDS011;73365;51.688;5.132;2023-12-22T14:28:12;8.67;;;1.10;;
83435;SDS011;73365;51.688;5.132;2023-12-22T14:30:38;8.55;;;1.58;;
83435;SDS011;73365;51.688;5.132;2023-12-22T14:33:04;9.18;;;1.48;;
83435;SDS011;73365;51.688;5.132;2023-12-22T14:37:55;9.85;;;1.42;;
83435;SDS011;73365;51.688;5.132;2023-12-22T14:42:48;4.93;;;0.90;;
83435;SDS011;73365;51.688;5.132;2023-12-22T14:45:14;7.50;;;1.40;;
83435;SDS011;73365;51.688;5.132;2023-12-22T14:47:39;9.57;;;1.27;;
83435;SDS011;73365;51.688;5.132;2023-12-22T14:50:05;11.48;;;1.08;;
83435;SDS011;73365;51.688;5.132;2023-12-22T14:55:00;8.00;;;1.00;;
83435;SDS011;73365;51.688;5.132;2023-12-22T14:57:25;7.90;;;1.23;;
83435;SDS011;73365;51.688;5.132;2023-12-22T15:02:16;7.95;;;1.17;;
83435;SDS011;73365;51.688;5.132;2023-12-22T15:04:42;8.85;;;1.17;;
83435;SDS011;73365;51.688;5.132;2023-12-22T15:07:08;8.02;;;1.80;;
83435;SDS011;73365;51.688;5.132;2023-12-22T15:12:00;7.13;;;1.15;;
83435;SDS011;73365;51.688;5.132;2023-12-22T15:14:25;9.50;;;1.48;;
83435;SDS011;73365;51.688;5.132;2023-12-22T15:19:17;6.53;;;0.90;;
83435;SDS011;73365;51.688;5.132;2023-12-22T15:21:42;8.80;;;1.08;;
83435;SDS011;73365;51.688;5.132;2023-12-22T15:24:08;9.48;;;1.88;;
83435;SDS011;73365;51.688;5.132;2023-12-22T15:29:00;7.10;;;1.40;;
83435;SDS011;73365;51.688;5.132;2023-12-22T15:31:27;10.10;;;1.27;;
83435;SDS011;73365;51.688;5.132;2023-12-22T15:33:54;7.65;;;1.67;;
83435;SDS011;73365;51.688;5.132;2023-12-22T15:36:20;8.02;;;1.50;;
83435;SDS011;73365;51.688;5.132;2023-12-22T15:38:49;8.98;;;1.73;;
83435;SDS011;73365;51.688;5.132;2023-12-22T15:41:15;7.97;;;1.65;;
83435;SDS011;73365;51.688;5.132;2023-12-22T15:43:44;6.38;;;1.55;;
83435;SDS011;73365;51.688;5.132;2023-12-22T15:46:09;8.98;;;1.35;;
83435;SDS011;73365;51.688;5.132;2023-12-22T15:51:10;6.93;;;1.92;;
83435;SDS011;73365;51.688;5.132;2023-12-22T15:53:37;11.32;;;1.63;;
83435;SDS011;73365;51.688;5.132;2023-12-22T15:56:06;8.00;;;1.63;;
83435;SDS011;73365;51.688;5.132;2023-12-22T15:58:38;7.25;;;1.58;;
83435;SDS011;73365;51.688;5.132;2023-12-22T16:01:06;8.15;;;1.75;;
83435;SDS011;73365;51.688;5.132;2023-12-22T16:03:32;13.40;;;1.52;;